createdAt,value
2018-03-31T00:01:36.390Z,85.39
2018-03-31T00:04:05.609Z,85.88
2018-03-31T00:06:35.015Z,85.32
2018-03-31T00:09:06.575Z,85.85
2018-03-31T00:11:36.432Z,85.37
2018-03-31T00:14:03.667Z,85.12
2018-03-31T00:16:31.001Z,85.69
2018-03-31T00:18:59.097Z,85.36
2018-03-31T00:21:26.222Z,84.91
2018-03-31T00:23:53.369Z,85.24
2018-03-31T00:26:20.984Z,84.88
2018-03-31T00:28:47.996Z,86.41
2018-03-31T00:31:16.589Z,84.77
2018-03-31T00:33:44.087Z,86.10
2018-03-31T00:36:11.872Z,84.52
2018-03-31T00:38:39.588Z,84.71
2018-03-31T00:41:06.571Z,84.79
2018-03-31T00:43:33.895Z,84.97
2018-03-31T00:46:01.328Z,85.57
2018-03-31T00:48:29.275Z,84.75
2018-03-31T00:50:56.336Z,84.71
2018-03-31T00:53:23.751Z,84.32
2018-03-31T00:55:50.740Z,84.56
2018-03-31T00:58:20.493Z,84.18
2018-03-31T01:00:48.054Z,84.32
2018-03-31T01:03:15.538Z,84.11
2018-03-31T01:05:43.601Z,84.69
2018-03-31T01:08:10.607Z,85.59
2018-03-31T01:10:37.742Z,85.86
2018-03-31T01:13:04.776Z,84.86
2018-03-31T01:15:32.684Z,84.27
2018-03-31T01:17:59.942Z,83.96
2018-03-31T01:20:27.467Z,84.04
2018-03-31T01:22:54.531Z,83.79
2018-03-31T01:25:21.564Z,83.80
2018-03-31T01:27:48.548Z,84.06
2018-03-31T01:30:15.569Z,83.36
2018-03-31T01:32:42.619Z,83.44
2018-03-31T01:35:09.638Z,83.15
2018-03-31T01:37:36.634Z,83.20
2018-03-31T01:40:03.648Z,84.18
2018-03-31T01:42:30.632Z,84.34
2018-03-31T01:44:57.656Z,84.27
2018-03-31T01:47:24.654Z,84.63
2018-03-31T01:49:51.694Z,84.73
2018-03-31T01:52:18.674Z,84.41
2018-03-31T01:54:45.697Z,84.33
2018-03-31T01:57:12.688Z,84.00
2018-03-31T01:59:39.738Z,83.84
2018-03-31T02:02:06.815Z,83.58
2018-03-31T02:04:33.849Z,83.33
2018-03-31T02:07:00.849Z,83.62
2018-03-31T02:09:27.872Z,83.78
2018-03-31T02:11:54.865Z,83.61
2018-03-31T02:14:21.888Z,83.34
2018-03-31T02:16:48.876Z,83.78
2018-03-31T02:19:15.910Z,84.39
2018-03-31T02:21:42.894Z,84.36
2018-03-31T02:24:09.925Z,83.90
2018-03-31T02:26:36.922Z,83.28
2018-03-31T02:29:03.920Z,83.48
2018-03-31T02:31:30.943Z,83.29
2018-03-31T02:33:57.985Z,83.23
2018-03-31T02:36:24.986Z,82.83
2018-03-31T02:38:51.972Z,82.65
2018-03-31T02:41:18.999Z,82.50
2018-03-31T02:43:45.992Z,82.70
2018-03-31T02:46:13.012Z,82.67
2018-03-31T02:48:40.004Z,82.49
2018-03-31T02:51:07.020Z,82.32
2018-03-31T02:53:34.002Z,82.53
2018-03-31T02:56:01.016Z,83.16
2018-03-31T02:58:28.068Z,83.23
2018-03-31T03:00:55.101Z,82.56
2018-03-31T03:03:22.082Z,83.50
2018-03-31T03:05:49.943Z,83.06
2018-03-31T03:08:16.961Z,82.77
2018-03-31T03:10:44.061Z,82.95
2018-03-31T03:13:11.041Z,83.17
2018-03-31T03:15:38.143Z,83.63
2018-03-31T03:18:05.131Z,82.96
2018-03-31T03:20:32.148Z,82.94
2018-03-31T03:22:59.140Z,82.84
2018-03-31T03:25:26.163Z,83.58
2018-03-31T03:27:53.148Z,85.38
2018-03-31T03:30:20.169Z,84.91
2018-03-31T03:32:47.156Z,84.83
2018-03-31T03:35:14.181Z,85.56
2018-03-31T03:37:41.214Z,85.58
2018-03-31T03:40:08.240Z,86.34
2018-03-31T03:42:35.233Z,87.03
2018-03-31T03:45:02.259Z,86.79
2018-03-31T03:47:29.244Z,85.78
2018-03-31T03:49:56.270Z,84.30
2018-03-31T03:52:23.335Z,84.39
2018-03-31T03:54:50.381Z,84.43
2018-03-31T03:57:17.397Z,84.11
2018-03-31T03:59:44.386Z,84.18
2018-03-31T04:02:11.406Z,84.58
2018-03-31T04:04:38.397Z,84.17
2018-03-31T04:07:05.447Z,84.19
2018-03-31T04:09:32.432Z,83.47
2018-03-31T04:11:59.505Z,83.42
2018-03-31T04:14:26.493Z,83.40
2018-03-31T04:16:53.520Z,82.86
2018-03-31T04:19:20.517Z,83.09
2018-03-31T04:21:47.538Z,83.39
2018-03-31T04:24:14.516Z,83.68
2018-03-31T04:26:41.524Z,83.24
2018-03-31T04:29:08.498Z,83.84
2018-03-31T04:31:35.523Z,83.90
2018-03-31T04:34:02.508Z,83.50
2018-03-31T04:36:29.533Z,83.35
2018-03-31T04:38:56.588Z,83.31
2018-03-31T04:41:23.601Z,83.53
2018-03-31T04:43:50.592Z,83.29
2018-03-31T04:46:17.609Z,83.19
2018-03-31T04:48:44.612Z,84.55
2018-03-31T04:51:11.648Z,84.43
2018-03-31T04:53:38.655Z,84.31
2018-03-31T04:56:05.675Z,84.39
2018-03-31T04:58:32.675Z,85.07
2018-03-31T05:00:59.692Z,85.44
2018-03-31T05:03:26.690Z,86.71
2018-03-31T05:05:53.828Z,87.45
2018-03-31T05:08:20.819Z,87.31
2018-03-31T05:10:47.833Z,87.73
2018-03-31T05:13:14.830Z,88.41
2018-03-31T05:15:41.819Z,89.98
2018-03-31T05:18:08.849Z,89.33
2018-03-31T05:20:35.845Z,90.58
2018-03-31T05:23:02.955Z,90.82
2018-03-31T05:25:29.968Z,90.37
2018-03-31T05:27:57.011Z,89.54
2018-03-31T05:30:24.041Z,92.21
2018-03-31T05:32:51.052Z,92.92
2018-03-31T05:35:18.035Z,92.15
2018-03-31T05:37:45.062Z,91.26
2018-03-31T05:40:12.055Z,91.12
2018-03-31T05:42:39.081Z,90.34
2018-03-31T05:45:06.090Z,89.44
2018-03-31T05:47:33.121Z,88.69
2018-03-31T05:50:00.170Z,88.69
2018-03-31T05:52:27.204Z,88.35
2018-03-31T05:54:54.199Z,88.58
2018-03-31T05:57:21.211Z,88.15
2018-03-31T05:59:48.192Z,88.14
2018-03-31T06:02:15.220Z,88.06
2018-03-31T06:04:42.227Z,88.06
2018-03-31T06:07:09.249Z,88.33
2018-03-31T06:09:36.245Z,88.44
2018-03-31T06:12:03.266Z,88.73
2018-03-31T06:14:30.255Z,88.23
2018-03-31T06:16:57.285Z,88.05
2018-03-31T06:19:24.282Z,87.79
2018-03-31T06:21:51.308Z,87.45
2018-03-31T06:24:18.307Z,88.02
2018-03-31T06:26:45.351Z,88.28
2018-03-31T06:29:12.358Z,87.92
2018-03-31T06:31:39.400Z,87.61
2018-03-31T06:34:06.411Z,87.68
2018-03-31T06:36:33.554Z,87.55
2018-03-31T06:39:00.543Z,87.79
2018-03-31T06:41:28.261Z,87.72
2018-03-31T06:43:56.459Z,88.42
2018-03-31T06:46:23.436Z,88.64
2018-03-31T06:48:50.444Z,89.13
2018-03-31T06:51:17.537Z,90.63
2018-03-31T06:53:44.585Z,91.01
2018-03-31T06:56:11.608Z,91.37
2018-03-31T06:58:38.615Z,91.54
2018-03-31T07:01:06.001Z,92.35
2018-03-31T07:03:33.021Z,92.50
2018-03-31T07:06:00.025Z,91.57
2018-03-31T07:08:27.123Z,90.42
2018-03-31T07:10:54.192Z,91.64
2018-03-31T07:13:21.288Z,91.71
2018-03-31T07:15:48.467Z,91.04
2018-03-31T07:18:15.489Z,92.23
2018-03-31T07:20:42.469Z,90.49
2018-03-31T07:23:09.570Z,91.63
2018-03-31T07:25:36.709Z,90.79
2018-03-31T07:28:04.021Z,89.50
2018-03-31T07:30:31.021Z,89.07
2018-03-31T07:33:05.269Z,89.86
2018-03-31T07:35:40.024Z,90.16
2018-03-31T07:38:11.408Z,89.92
2018-03-31T07:40:44.019Z,90.77
2018-03-31T07:43:11.258Z,91.82
2018-03-31T07:45:42.308Z,92.07
2018-03-31T07:48:13.886Z,91.38
2018-03-31T07:50:41.489Z,90.48
2018-03-31T07:53:08.702Z,90.46
2018-03-31T07:55:35.736Z,90.89
2018-03-31T07:58:02.763Z,89.81
2018-03-31T08:00:29.763Z,89.95
2018-03-31T08:02:56.925Z,89.31
2018-03-31T08:05:23.929Z,89.07
2018-03-31T08:07:51.160Z,89.24
2018-03-31T08:10:18.181Z,89.01
2018-03-31T08:12:45.543Z,88.47
2018-03-31T08:15:12.605Z,88.15
2018-03-31T08:17:39.896Z,87.74
2018-03-31T08:20:07.697Z,87.71
2018-03-31T08:22:35.014Z,87.80
2018-03-31T08:25:02.115Z,87.73
2018-03-31T08:27:29.144Z,87.09
2018-03-31T08:29:56.222Z,86.86
2018-03-31T08:32:23.643Z,86.71
2018-03-31T08:34:50.683Z,88.16
2018-03-31T08:37:18.376Z,87.37
2018-03-31T08:39:47.483Z,88.22
2018-03-31T08:42:14.733Z,87.49
2018-03-31T08:44:41.761Z,88.10
2018-03-31T08:47:08.774Z,88.29
2018-03-31T08:49:37.822Z,88.59
2018-03-31T08:52:04.941Z,88.16
2018-03-31T08:54:32.090Z,88.69
2018-03-31T08:56:59.815Z,87.43
2018-03-31T08:59:26.897Z,88.00
2018-03-31T09:01:53.964Z,88.29
2018-03-31T09:04:22.541Z,87.22
2018-03-31T09:06:49.547Z,87.40
2018-03-31T09:09:16.713Z,86.46
2018-03-31T09:11:43.686Z,84.99
2018-03-31T09:14:10.894Z,84.80
2018-03-31T09:16:38.377Z,85.66
2018-03-31T09:19:05.376Z,84.87
2018-03-31T09:21:32.399Z,83.78
2018-03-31T09:24:00.542Z,83.55
2018-03-31T09:26:28.004Z,83.40
2018-03-31T09:28:55.122Z,83.84
2018-03-31T09:31:22.112Z,84.14
2018-03-31T09:33:49.134Z,83.00
2018-03-31T09:36:16.116Z,83.80
2018-03-31T09:38:43.166Z,83.37
2018-03-31T09:41:10.166Z,83.05
2018-03-31T09:43:37.572Z,82.44
2018-03-31T09:46:04.800Z,83.71
2018-03-31T09:48:31.973Z,82.76
2018-03-31T09:50:58.972Z,83.75
2018-03-31T09:53:26.008Z,82.96
2018-03-31T09:55:53.032Z,83.17
2018-03-31T09:58:20.345Z,83.46
2018-03-31T10:00:50.336Z,83.14
2018-03-31T10:03:19.908Z,83.49
2018-03-31T10:05:50.053Z,81.93
2018-03-31T10:08:19.537Z,83.19
2018-03-31T10:10:46.932Z,83.15
2018-03-31T10:13:13.989Z,81.97
2018-03-31T10:15:40.993Z,80.15
2018-03-31T10:18:08.564Z,81.31
2018-03-31T10:20:35.575Z,80.72
2018-03-31T10:23:02.551Z,79.45
2018-03-31T10:25:29.588Z,79.53
2018-03-31T10:27:56.761Z,81.74
2018-03-31T10:30:23.828Z,82.71
2018-03-31T10:32:52.287Z,83.16
2018-03-31T10:35:19.505Z,80.06
2018-03-31T10:37:48.277Z,78.34
2018-03-31T10:40:15.420Z,83.05
2018-03-31T10:42:42.526Z,83.16
2018-03-31T10:45:09.661Z,80.30
2018-03-31T10:47:37.147Z,81.58
2018-03-31T10:50:04.401Z,79.68
2018-03-31T10:52:31.384Z,78.39
2018-03-31T10:54:58.403Z,80.13
2018-03-31T10:57:25.530Z,82.10
2018-03-31T10:59:52.569Z,78.79
2018-03-31T11:02:21.909Z,79.44
2018-03-31T11:04:49.204Z,80.86
2018-03-31T11:07:16.202Z,80.24
2018-03-31T11:09:43.252Z,83.73
2018-03-31T11:12:10.245Z,78.19
2018-03-31T11:14:37.282Z,80.31
2018-03-31T11:17:04.305Z,79.46
2018-03-31T11:19:31.334Z,79.49
2018-03-31T11:21:58.705Z,78.44
2018-03-31T11:24:25.841Z,79.09
2018-03-31T11:26:52.828Z,80.29
2018-03-31T11:29:20.200Z,80.58
2018-03-31T11:31:47.240Z,79.76
2018-03-31T11:34:14.338Z,78.94
2018-03-31T11:36:41.678Z,77.67
2018-03-31T11:39:08.748Z,76.21
2018-03-31T11:41:35.759Z,80.69
2018-03-31T11:44:03.192Z,76.39
2018-03-31T11:46:30.309Z,74.89
2018-03-31T11:48:57.376Z,74.34
2018-03-31T11:51:24.759Z,74.85
2018-03-31T11:53:52.291Z,72.09
2018-03-31T11:56:19.707Z,71.65
2018-03-31T11:58:48.418Z,68.94
2018-03-31T12:01:15.570Z,69.43
2018-03-31T12:03:43.084Z,67.83
2018-03-31T12:06:10.191Z,68.67
2018-03-31T12:08:37.196Z,66.36
2018-03-31T12:11:04.236Z,64.41
2018-03-31T12:13:31.235Z,65.18
2018-03-31T12:15:58.293Z,64.96
2018-03-31T12:18:25.657Z,65.34
2018-03-31T12:20:52.680Z,63.58
2018-03-31T12:23:20.294Z,62.93
2018-03-31T12:25:47.400Z,65.27
2018-03-31T12:28:15.093Z,62.60
2018-03-31T12:30:42.819Z,60.93
2018-03-31T12:33:09.814Z,62.46
2018-03-31T12:38:03.630Z,64.11
2018-03-31T12:40:30.687Z,61.26
2018-03-31T12:42:57.733Z,62.21
2018-03-31T12:45:25.008Z,63.45
2018-03-31T12:47:51.998Z,58.47
2018-03-31T12:50:19.044Z,57.85
2018-03-31T12:52:46.044Z,57.20
2018-03-31T12:55:13.188Z,55.43
2018-03-31T12:57:40.380Z,58.74
2018-03-31T13:00:07.838Z,57.12
2018-03-31T13:02:34.848Z,57.54
2018-03-31T13:05:03.538Z,55.05
2018-03-31T13:07:30.550Z,54.79
2018-03-31T13:09:57.576Z,54.01
2018-03-31T13:12:24.568Z,56.58
2018-03-31T13:14:51.602Z,55.03
2018-03-31T13:17:18.617Z,52.47
2018-03-31T13:19:45.666Z,50.88
2018-03-31T13:22:12.949Z,53.24
2018-03-31T13:24:40.322Z,53.75
2018-03-31T13:27:07.421Z,53.91
2018-03-31T13:29:34.481Z,51.22
2018-03-31T13:32:02.503Z,53.76
2018-03-31T13:34:29.605Z,52.08
2018-03-31T13:36:58.160Z,53.21
2018-03-31T13:39:25.548Z,55.94
2018-03-31T13:41:52.832Z,49.28
2018-03-31T13:44:19.902Z,51.76
2018-03-31T13:46:48.859Z,50.95
2018-03-31T13:49:16.300Z,52.88
2018-03-31T13:51:43.328Z,50.77
2018-03-31T13:54:10.309Z,51.40
2018-03-31T13:56:37.608Z,55.21
2018-03-31T13:59:06.282Z,50.66
2018-03-31T14:01:33.317Z,50.34
2018-03-31T14:04:00.308Z,54.00
2018-03-31T14:06:27.334Z,50.88
2018-03-31T14:08:54.476Z,53.61
2018-03-31T14:11:21.983Z,52.98
2018-03-31T14:13:50.521Z,50.79
2018-03-31T14:16:17.564Z,54.47
2018-03-31T14:18:44.896Z,50.99
2018-03-31T14:21:12.882Z,50.07
2018-03-31T14:23:41.385Z,50.62
2018-03-31T14:26:08.844Z,50.71
2018-03-31T14:28:37.488Z,46.20
2018-03-31T14:31:04.598Z,45.40
2018-03-31T14:33:31.736Z,46.07
2018-03-31T14:36:00.231Z,48.07
2018-03-31T14:38:29.274Z,48.50
2018-03-31T14:40:59.158Z,48.94
2018-03-31T14:43:27.030Z,45.96
2018-03-31T14:45:55.101Z,44.29
2018-03-31T14:48:22.625Z,46.01
2018-03-31T14:50:53.098Z,47.86
2018-03-31T14:53:24.828Z,46.76
2018-03-31T14:55:52.461Z,44.95
2018-03-31T14:58:21.861Z,46.66
2018-03-31T15:00:50.411Z,45.34
2018-03-31T15:03:18.947Z,44.10
2018-03-31T15:05:48.028Z,47.01
2018-03-31T15:08:15.226Z,48.05
2018-03-31T15:10:44.513Z,45.55
2018-03-31T15:13:12.610Z,43.30
2018-03-31T15:15:40.340Z,42.33
2018-03-31T15:18:08.302Z,45.57
2018-03-31T15:20:36.480Z,44.07
2018-03-31T15:23:04.430Z,46.69
2018-03-31T15:25:32.712Z,45.47
2018-03-31T15:28:00.348Z,46.42
2018-03-31T15:30:30.360Z,45.96
2018-03-31T15:32:58.813Z,47.71
2018-03-31T15:35:27.690Z,44.19
2018-03-31T15:37:56.190Z,43.01
2018-03-31T15:40:24.593Z,44.36
2018-03-31T15:42:51.733Z,44.60
2018-03-31T15:45:20.902Z,44.16
2018-03-31T15:47:50.477Z,42.63
2018-03-31T15:50:18.962Z,42.29
2018-03-31T15:52:47.359Z,45.42
2018-03-31T15:55:16.759Z,43.54
2018-03-31T15:57:46.491Z,43.76
2018-03-31T16:00:17.226Z,43.74
2018-03-31T16:02:45.440Z,39.15
2018-03-31T16:05:12.622Z,39.92
2018-03-31T16:07:40.652Z,40.68
2018-03-31T16:10:08.478Z,38.08
2018-03-31T16:12:36.660Z,38.33
2018-03-31T16:15:05.027Z,41.36
2018-03-31T16:17:34.875Z,40.04
2018-03-31T16:20:02.442Z,43.95
2018-03-31T16:22:29.476Z,40.15
2018-03-31T16:24:56.840Z,40.49
2018-03-31T16:27:24.737Z,39.95
2018-03-31T16:29:53.471Z,40.79
2018-03-31T16:32:21.641Z,42.98
2018-03-31T16:34:49.438Z,41.02
2018-03-31T16:37:16.590Z,42.28
2018-03-31T16:39:43.576Z,42.59
2018-03-31T16:42:10.604Z,40.51
2018-03-31T16:44:37.607Z,41.93
2018-03-31T16:47:04.629Z,43.27
2018-03-31T16:49:32.960Z,41.48
2018-03-31T16:52:01.277Z,41.00
2018-03-31T16:54:28.288Z,40.21
2018-03-31T16:56:58.263Z,41.49
2018-03-31T16:59:26.414Z,44.32
2018-03-31T17:01:53.467Z,42.26
2018-03-31T17:04:23.250Z,43.31
2018-03-31T17:06:52.003Z,41.79
2018-03-31T17:09:20.553Z,44.07
2018-03-31T17:11:51.235Z,42.99
2018-03-31T17:14:21.144Z,42.18
2018-03-31T17:16:50.388Z,43.46
2018-03-31T17:19:21.680Z,43.52
2018-03-31T17:21:51.930Z,44.68
2018-03-31T17:24:20.788Z,43.45
2018-03-31T17:26:49.772Z,44.32
2018-03-31T17:29:18.423Z,43.97
2018-03-31T17:31:46.936Z,44.71
2018-03-31T17:34:14.266Z,44.74
2018-03-31T17:36:44.175Z,44.53
2018-03-31T17:39:16.405Z,45.23
2018-03-31T17:41:43.580Z,45.87
2018-03-31T17:44:18.254Z,45.89
2018-03-31T17:46:46.512Z,47.21
2018-03-31T17:49:15.743Z,46.40
2018-03-31T17:51:48.352Z,46.44
2018-03-31T17:54:20.221Z,47.10
2018-03-31T17:56:52.082Z,47.92
2018-03-31T17:59:19.474Z,49.74
2018-03-31T18:01:50.571Z,49.32
2018-03-31T18:04:18.489Z,48.77
2018-03-31T18:06:48.148Z,48.17
2018-03-31T18:09:16.686Z,49.09
2018-03-31T18:11:49.241Z,49.30
2018-03-31T18:14:18.809Z,49.72
2018-03-31T18:16:46.347Z,49.78
2018-03-31T18:19:14.489Z,49.71
2018-03-31T18:21:41.530Z,50.15
2018-03-31T18:24:08.620Z,50.26
2018-03-31T18:26:35.613Z,50.64
2018-03-31T18:29:02.651Z,52.74
2018-03-31T18:31:29.682Z,55.27
2018-03-31T18:33:56.688Z,57.34
2018-03-31T18:36:23.670Z,57.94
2018-03-31T18:38:51.149Z,57.62
2018-03-31T18:41:18.462Z,57.85
2018-03-31T18:43:45.519Z,59.08
2018-03-31T18:46:12.503Z,61.65
2018-03-31T18:48:39.512Z,60.64
2018-03-31T18:51:06.488Z,61.00
2018-03-31T18:53:33.929Z,60.53
2018-03-31T18:56:00.966Z,60.44
2018-03-31T18:58:28.176Z,61.81
2018-03-31T19:00:55.531Z,62.11
2018-03-31T19:03:22.707Z,61.78
2018-03-31T19:05:49.791Z,61.94
2018-03-31T19:08:17.184Z,61.97
2018-03-31T19:10:44.500Z,62.10
2018-03-31T19:13:11.643Z,62.27
2018-03-31T19:15:42.201Z,62.58
2018-03-31T19:18:09.919Z,62.75
2018-03-31T19:20:37.403Z,63.20
2018-03-31T19:23:07.449Z,64.16
2018-03-31T19:25:37.179Z,64.45
2018-03-31T19:28:04.309Z,63.83
2018-03-31T19:30:36.857Z,64.14
2018-03-31T19:33:04.047Z,64.07
2018-03-31T19:35:37.012Z,65.19
2018-03-31T19:38:04.571Z,66.30
2018-03-31T19:40:31.630Z,67.91
2018-03-31T19:42:58.925Z,66.33
2018-03-31T19:45:26.587Z,68.06
2018-03-31T19:47:53.674Z,66.70
2018-03-31T19:50:20.700Z,66.52
2018-03-31T19:52:48.027Z,66.43
2018-03-31T19:55:15.108Z,67.81
2018-03-31T19:57:42.549Z,67.53
2018-03-31T20:00:09.569Z,68.55
2018-03-31T20:02:38.312Z,68.12
2018-03-31T21:31:43.446Z,71.86
2018-03-31T21:34:13.172Z,74.70
2018-03-31T21:36:41.244Z,78.32
2018-03-31T21:39:10.020Z,75.54
2018-03-31T21:41:39.031Z,75.35
2018-03-31T21:44:06.830Z,76.48
2018-03-31T21:46:33.984Z,74.46
2018-03-31T21:49:00.957Z,71.82
2018-03-31T21:51:28.002Z,72.11
2018-03-31T21:53:55.499Z,72.92
2018-03-31T21:56:23.183Z,73.27
2018-03-31T21:58:51.000Z,73.10
2018-03-31T22:01:18.619Z,72.70
2018-03-31T22:03:45.715Z,72.90
2018-03-31T22:06:12.782Z,72.55
2018-03-31T22:08:40.165Z,73.76
2018-03-31T22:11:07.807Z,76.53
2018-03-31T22:13:40.504Z,80.20
2018-03-31T22:16:09.041Z,80.64
2018-03-31T22:18:37.111Z,79.20
2018-03-31T22:21:05.363Z,81.42
2018-03-31T22:23:33.635Z,80.72
2018-03-31T22:26:00.668Z,79.81
2018-03-31T22:28:27.701Z,79.70
2018-03-31T22:30:54.713Z,78.39
2018-03-31T22:33:21.795Z,77.91
2018-03-31T22:35:48.856Z,78.85
2018-03-31T22:38:16.286Z,78.64
2018-03-31T22:40:43.930Z,79.06
2018-03-31T22:43:10.968Z,77.71
2018-03-31T22:45:37.990Z,78.72
2018-03-31T22:48:04.985Z,77.71
2018-03-31T22:50:32.102Z,77.59
2018-03-31T22:53:00.551Z,78.41
2018-03-31T22:55:27.638Z,78.57
2018-03-31T22:57:55.455Z,78.50
2018-03-31T23:00:23.112Z,78.04
2018-03-31T23:02:50.366Z,76.96
2018-03-31T23:05:18.377Z,76.68
2018-03-31T23:07:45.435Z,76.89
2018-03-31T23:10:12.459Z,77.37
2018-03-31T23:12:40.391Z,76.93
2018-03-31T23:15:10.457Z,77.75
2018-03-31T23:17:40.346Z,79.00
2018-03-31T23:20:08.787Z,77.52
2018-03-31T23:22:35.802Z,78.30
2018-03-31T23:25:03.702Z,77.76
2018-03-31T23:27:32.301Z,78.09
2018-03-31T23:30:00.021Z,78.00
2018-03-31T23:32:29.356Z,78.17
2018-03-31T23:34:56.565Z,77.39
2018-03-31T23:37:24.377Z,78.04
2018-03-31T23:39:52.460Z,78.24
2018-03-31T23:42:19.837Z,77.66
2018-03-31T23:44:46.920Z,77.79
2018-03-31T23:47:14.111Z,79.17
2018-03-31T23:49:41.099Z,79.81
2018-03-31T23:52:08.205Z,80.34
2018-03-31T23:54:35.199Z,81.26
2018-03-31T23:57:02.547Z,80.71
2018-03-31T23:59:31.350Z,81.00
